sensor_id;sensor_type;location;lat;lon;timestamp;temperature;humidity
33528;DHT22;19861;42.868;74.608;2022-07-10T00:00:35;20.30;61.20
33528;DHT22;19861;42.868;74.608;2022-07-10T00:03:05;20.40;62.30
33528;DHT22;19861;42.868;74.608;2022-07-10T00:05:31;20.50;64.40
33528;DHT22;19861;42.868;74.608;2022-07-10T00:08:00;20.50;65.20
33528;DHT22;19861;42.868;74.608;2022-07-10T00:10:26;20.50;64.10
33528;DHT22;19861;42.868;74.608;2022-07-10T00:12:54;20.50;64.70
33528;DHT22;19861;42.868;74.608;2022-07-10T00:15:20;20.30;66.30
33528;DHT22;19861;42.868;74.608;2022-07-10T00:17:47;20.40;66.30
33528;DHT22;19861;42.868;74.608;2022-07-10T00:20:14;20.30;66.00
33528;DHT22;19861;42.868;74.608;2022-07-10T00:22:40;20.50;63.30
33528;DHT22;19861;42.868;74.608;2022-07-10T00:25:09;20.60;64.20
33528;DHT22;19861;42.868;74.608;2022-07-10T00:27:35;20.80;65.70
33528;DHT22;19861;42.868;74.608;2022-07-10T00:30:02;20.80;63.60
33528;DHT22;19861;42.868;74.608;2022-07-10T00:32:28;20.80;64.60
33528;DHT22;19861;42.868;74.608;2022-07-10T00:34:54;20.90;66.00
33528;DHT22;19861;42.868;74.608;2022-07-10T00:37:20;20.80;67.60
33528;DHT22;19861;42.868;74.608;2022-07-10T00:39:47;20.80;66.70
33528;DHT22;19861;42.868;74.608;2022-07-10T00:42:15;21.00;66.70
33528;DHT22;19861;42.868;74.608;2022-07-10T00:44:42;21.50;65.30
33528;DHT22;19861;42.868;74.608;2022-07-10T00:47:09;22.10;64.10
33528;DHT22;19861;42.868;74.608;2022-07-10T00:49:37;22.40;62.10
33528;DHT22;19861;42.868;74.608;2022-07-10T00:52:06;23.00;59.80
33528;DHT22;19861;42.868;74.608;2022-07-10T00:54:34;23.50;58.90
33528;DHT22;19861;42.868;74.608;2022-07-10T00:57:01;24.10;57.20
33528;DHT22;19861;42.868;74.608;2022-07-10T00:59:28;23.70;56.60
33528;DHT22;19861;42.868;74.608;2022-07-10T01:01:55;23.60;57.50
33528;DHT22;19861;42.868;74.608;2022-07-10T01:04:21;23.70;58.20
33528;DHT22;19861;42.868;74.608;2022-07-10T01:06:47;23.70;59.50
33528;DHT22;19861;42.868;74.608;2022-07-10T01:09:13;24.20;58.90
33528;DHT22;19861;42.868;74.608;2022-07-10T01:11:40;23.90;59.40
33528;DHT22;19861;42.868;74.608;2022-07-10T01:14:06;24.50;58.40
33528;DHT22;19861;42.868;74.608;2022-07-10T01:16:32;24.70;58.10
33528;DHT22;19861;42.868;74.608;2022-07-10T01:18:58;26.10;54.70
33528;DHT22;19861;42.868;74.608;2022-07-10T01:21:31;27.10;52.70
33528;DHT22;19861;42.868;74.608;2022-07-10T01:23:59;26.00;54.60
33528;DHT22;19861;42.868;74.608;2022-07-10T01:26:25;26.20;52.80
33528;DHT22;19861;42.868;74.608;2022-07-10T01:28:53;27.20;51.20
33528;DHT22;19861;42.868;74.608;2022-07-10T01:31:20;27.30;51.00
33528;DHT22;19861;42.868;74.608;2022-07-10T01:33:49;27.30;50.50
33528;DHT22;19861;42.868;74.608;2022-07-10T01:36:16;26.80;51.70
33528;DHT22;19861;42.868;74.608;2022-07-10T01:38:43;25.80;52.80
33528;DHT22;19861;42.868;74.608;2022-07-10T01:41:09;26.50;52.10
33528;DHT22;19861;42.868;74.608;2022-07-10T01:43:38;26.80;51.00
33528;DHT22;19861;42.868;74.608;2022-07-10T01:46:08;27.20;51.80
33528;DHT22;19861;42.868;74.608;2022-07-10T01:48:40;27.60;50.60
33528;DHT22;19861;42.868;74.608;2022-07-10T01:51:07;28.10;49.70
33528;DHT22;19861;42.868;74.608;2022-07-10T01:53:34;28.70;48.10
33528;DHT22;19861;42.868;74.608;2022-07-10T01:56:08;29.10;46.90
33528;DHT22;19861;42.868;74.608;2022-07-10T01:58:35;29.70;43.40
33528;DHT22;19861;42.868;74.608;2022-07-10T02:01:02;30.20;43.80
33528;DHT22;19861;42.868;74.608;2022-07-10T02:03:28;30.80;42.50
33528;DHT22;19861;42.868;74.608;2022-07-10T02:06:12;30.40;43.50
33528;DHT22;19861;42.868;74.608;2022-07-10T02:08:38;31.00;40.90
33528;DHT22;19861;42.868;74.608;2022-07-10T02:11:04;30.90;40.40
33528;DHT22;19861;42.868;74.608;2022-07-10T02:13:30;30.90;39.90
33528;DHT22;19861;42.868;74.608;2022-07-10T02:15:58;31.80;37.10
33528;DHT22;19861;42.868;74.608;2022-07-10T02:18:24;32.20;36.70
33528;DHT22;19861;42.868;74.608;2022-07-10T02:20:51;32.30;36.40
33528;DHT22;19861;42.868;74.608;2022-07-10T02:23:17;31.20;36.90
33528;DHT22;19861;42.868;74.608;2022-07-10T02:25:43;31.70;36.70
33528;DHT22;19861;42.868;74.608;2022-07-10T02:28:10;31.80;36.40
33528;DHT22;19861;42.868;74.608;2022-07-10T02:30:36;32.40;35.00
33528;DHT22;19861;42.868;74.608;2022-07-10T02:33:02;33.00;34.60
33528;DHT22;19861;42.868;74.608;2022-07-10T02:35:29;30.90;37.20
33528;DHT22;19861;42.868;74.608;2022-07-10T02:37:55;31.30;36.50
33528;DHT22;19861;42.868;74.608;2022-07-10T02:40:21;30.80;37.90
33528;DHT22;19861;42.868;74.608;2022-07-10T02:42:47;31.20;36.80
33528;DHT22;19861;42.868;74.608;2022-07-10T02:45:13;30.70;36.80
33528;DHT22;19861;42.868;74.608;2022-07-10T02:47:39;30.30;38.30
33528;DHT22;19861;42.868;74.608;2022-07-10T02:50:06;30.00;37.10
33528;DHT22;19861;42.868;74.608;2022-07-10T02:52:32;30.20;37.50
33528;DHT22;19861;42.868;74.608;2022-07-10T02:54:58;31.00;36.80
33528;DHT22;19861;42.868;74.608;2022-07-10T02:57:25;31.20;36.20
33528;DHT22;19861;42.868;74.608;2022-07-10T02:59:51;30.80;36.90
33528;DHT22;19861;42.868;74.608;2022-07-10T03:02:17;32.00;34.90
33528;DHT22;19861;42.868;74.608;2022-07-10T03:04:43;32.90;34.50
33528;DHT22;19861;42.868;74.608;2022-07-10T03:07:09;31.60;35.40
33528;DHT22;19861;42.868;74.608;2022-07-10T03:09:35;32.20;35.40
33528;DHT22;19861;42.868;74.608;2022-07-10T03:12:01;32.90;34.30
33528;DHT22;19861;42.868;74.608;2022-07-10T03:14:27;33.50;34.50
33528;DHT22;19861;42.868;74.608;2022-07-10T03:16:53;32.80;35.30
33528;DHT22;19861;42.868;74.608;2022-07-10T03:19:19;33.40;34.40
33528;DHT22;19861;42.868;74.608;2022-07-10T03:21:45;34.00;33.60
33528;DHT22;19861;42.868;74.608;2022-07-10T03:24:11;33.30;34.40
33528;DHT22;19861;42.868;74.608;2022-07-10T03:26:37;33.40;33.90
33528;DHT22;19861;42.868;74.608;2022-07-10T03:29:03;32.10;36.10
33528;DHT22;19861;42.868;74.608;2022-07-10T03:31:30;31.90;36.90
33528;DHT22;19861;42.868;74.608;2022-07-10T03:33:56;31.60;37.10
33528;DHT22;19861;42.868;74.608;2022-07-10T03:36:22;32.40;36.80
33528;DHT22;19861;42.868;74.608;2022-07-10T03:38:48;31.50;37.70
33528;DHT22;19861;42.868;74.608;2022-07-10T03:41:14;31.70;36.80
33528;DHT22;19861;42.868;74.608;2022-07-10T03:43:40;32.00;36.50
33528;DHT22;19861;42.868;74.608;2022-07-10T03:46:06;33.20;35.50
33528;DHT22;19861;42.868;74.608;2022-07-10T03:48:33;34.00;34.60
33528;DHT22;19861;42.868;74.608;2022-07-10T03:50:59;34.60;34.10
33528;DHT22;19861;42.868;74.608;2022-07-10T03:53:26;32.70;34.60
33528;DHT22;19861;42.868;74.608;2022-07-10T03:55:53;32.30;36.40
33528;DHT22;19861;42.868;74.608;2022-07-10T03:58:20;31.80;37.50
33528;DHT22;19861;42.868;74.608;2022-07-10T04:00:46;31.60;38.00
33528;DHT22;19861;42.868;74.608;2022-07-10T04:03:12;30.30;39.00
33528;DHT22;19861;42.868;74.608;2022-07-10T04:05:39;28.70;41.80
33528;DHT22;19861;42.868;74.608;2022-07-10T04:08:05;29.20;41.30
33528;DHT22;19861;42.868;74.608;2022-07-10T04:10:32;29.60;40.70
33528;DHT22;19861;42.868;74.608;2022-07-10T04:12:58;28.90;41.30
33528;DHT22;19861;42.868;74.608;2022-07-10T04:15:24;28.60;41.90
33528;DHT22;19861;42.868;74.608;2022-07-10T04:17:51;28.70;41.70
33528;DHT22;19861;42.868;74.608;2022-07-10T04:20:18;28.80;41.50
33528;DHT22;19861;42.868;74.608;2022-07-10T04:22:44;28.80;40.80
33528;DHT22;19861;42.868;74.608;2022-07-10T04:25:11;28.80;40.20
33528;DHT22;19861;42.868;74.608;2022-07-10T04:27:37;28.90;40.50
33528;DHT22;19861;42.868;74.608;2022-07-10T04:30:04;28.40;41.60
33528;DHT22;19861;42.868;74.608;2022-07-10T04:32:31;28.30;41.60
33528;DHT22;19861;42.868;74.608;2022-07-10T04:34:57;28.50;41.60
33528;DHT22;19861;42.868;74.608;2022-07-10T04:37:23;28.00;42.00
33528;DHT22;19861;42.868;74.608;2022-07-10T04:39:49;27.80;42.90
33528;DHT22;19861;42.868;74.608;2022-07-10T04:42:16;27.80;41.80
33528;DHT22;19861;42.868;74.608;2022-07-10T04:44:42;28.10;41.30
33528;DHT22;19861;42.868;74.608;2022-07-10T04:47:07;28.20;39.40
33528;DHT22;19861;42.868;74.608;2022-07-10T04:49:34;27.80;40.00
33528;DHT22;19861;42.868;74.608;2022-07-10T04:52:00;27.50;39.00
33528;DHT22;19861;42.868;74.608;2022-07-10T04:54:26;27.80;40.20
33528;DHT22;19861;42.868;74.608;2022-07-10T04:56:52;27.80;40.10
33528;DHT22;19861;42.868;74.608;2022-07-10T04:59:18;28.10;38.90
33528;DHT22;19861;42.868;74.608;2022-07-10T05:01:45;28.20;38.90
33528;DHT22;19861;42.868;74.608;2022-07-10T05:04:11;28.50;40.70
33528;DHT22;19861;42.868;74.608;2022-07-10T05:06:37;27.80;40.70
33528;DHT22;19861;42.868;74.608;2022-07-10T05:09:03;27.90;39.20
33528;DHT22;19861;42.868;74.608;2022-07-10T05:11:29;27.90;40.30
33528;DHT22;19861;42.868;74.608;2022-07-10T05:13:57;28.00;41.00
33528;DHT22;19861;42.868;74.608;2022-07-10T05:16:23;27.80;41.90
33528;DHT22;19861;42.868;74.608;2022-07-10T05:18:49;28.00;41.80
33528;DHT22;19861;42.868;74.608;2022-07-10T05:21:15;28.10;41.20
33528;DHT22;19861;42.868;74.608;2022-07-10T05:23:42;28.10;41.80
33528;DHT22;19861;42.868;74.608;2022-07-10T05:26:08;27.70;41.30
33528;DHT22;19861;42.868;74.608;2022-07-10T05:28:34;28.00;38.70
33528;DHT22;19861;42.868;74.608;2022-07-10T05:31:00;28.00;39.00
33528;DHT22;19861;42.868;74.608;2022-07-10T05:33:26;28.00;39.00
33528;DHT22;19861;42.868;74.608;2022-07-10T05:35:54;27.90;38.70
33528;DHT22;19861;42.868;74.608;2022-07-10T05:38:20;28.10;37.40
33528;DHT22;19861;42.868;74.608;2022-07-10T05:40:46;28.30;38.20
33528;DHT22;19861;42.868;74.608;2022-07-10T05:43:12;28.20;39.30
33528;DHT22;19861;42.868;74.608;2022-07-10T05:45:38;28.00;39.50
33528;DHT22;19861;42.868;74.608;2022-07-10T05:48:04;28.20;40.60
33528;DHT22;19861;42.868;74.608;2022-07-10T05:50:30;28.40;39.00
33528;DHT22;19861;42.868;74.608;2022-07-10T05:52:57;28.30;37.90
33528;DHT22;19861;42.868;74.608;2022-07-10T05:55:23;28.00;38.00
33528;DHT22;19861;42.868;74.608;2022-07-10T05:57:49;27.70;40.00
33528;DHT22;19861;42.868;74.608;2022-07-10T06:00:16;27.80;38.90
33528;DHT22;19861;42.868;74.608;2022-07-10T06:02:42;28.20;39.30
33528;DHT22;19861;42.868;74.608;2022-07-10T06:05:09;28.20;41.10
33528;DHT22;19861;42.868;74.608;2022-07-10T06:07:35;27.80;41.20
33528;DHT22;19861;42.868;74.608;2022-07-10T06:10:05;27.80;41.30
33528;DHT22;19861;42.868;74.608;2022-07-10T06:12:31;28.00;41.60
33528;DHT22;19861;42.868;74.608;2022-07-10T06:14:58;28.10;40.10
33528;DHT22;19861;42.868;74.608;2022-07-10T06:17:23;28.20;39.50
33528;DHT22;19861;42.868;74.608;2022-07-10T06:19:50;28.20;39.30
33528;DHT22;19861;42.868;74.608;2022-07-10T06:22:16;28.30;39.60
33528;DHT22;19861;42.868;74.608;2022-07-10T06:24:58;28.10;39.50
33528;DHT22;19861;42.868;74.608;2022-07-10T06:27:25;27.50;39.50
33528;DHT22;19861;42.868;74.608;2022-07-10T06:29:51;27.60;39.30
33528;DHT22;19861;42.868;74.608;2022-07-10T06:32:17;27.70;37.90
33528;DHT22;19861;42.868;74.608;2022-07-10T06:34:43;27.80;37.20
33528;DHT22;19861;42.868;74.608;2022-07-10T06:37:09;28.20;36.10
33528;DHT22;19861;42.868;74.608;2022-07-10T06:39:35;27.90;35.50
33528;DHT22;19861;42.868;74.608;2022-07-10T06:42:05;27.90;37.00
33528;DHT22;19861;42.868;74.608;2022-07-10T06:44:32;27.90;35.70
33528;DHT22;19861;42.868;74.608;2022-07-10T06:46:59;27.90;37.40
33528;DHT22;19861;42.868;74.608;2022-07-10T06:49:45;28.00;37.90
33528;DHT22;19861;42.868;74.608;2022-07-10T06:52:12;27.80;38.40
33528;DHT22;19861;42.868;74.608;2022-07-10T06:54:38;28.30;38.50
33528;DHT22;19861;42.868;74.608;2022-07-10T06:57:05;28.50;37.90
33528;DHT22;19861;42.868;74.608;2022-07-10T06:59:31;28.70;37.70
33528;DHT22;19861;42.868;74.608;2022-07-10T07:01:57;29.00;37.60
33528;DHT22;19861;42.868;74.608;2022-07-10T07:04:23;28.80;38.20
33528;DHT22;19861;42.868;74.608;2022-07-10T07:06:49;28.50;39.40
33528;DHT22;19861;42.868;74.608;2022-07-10T07:09:15;28.50;39.00
33528;DHT22;19861;42.868;74.608;2022-07-10T07:11:41;28.70;38.90
33528;DHT22;19861;42.868;74.608;2022-07-10T07:14:07;28.70;38.80
33528;DHT22;19861;42.868;74.608;2022-07-10T07:16:33;28.40;38.20
33528;DHT22;19861;42.868;74.608;2022-07-10T07:19:09;28.20;38.10
33528;DHT22;19861;42.868;74.608;2022-07-10T07:21:43;28.40;39.20
33528;DHT22;19861;42.868;74.608;2022-07-10T07:24:28;28.30;40.20
33528;DHT22;19861;42.868;74.608;2022-07-10T07:26:54;28.30;39.30
33528;DHT22;19861;42.868;74.608;2022-07-10T07:29:20;28.40;39.60
33528;DHT22;19861;42.868;74.608;2022-07-10T07:31:46;28.40;39.60
33528;DHT22;19861;42.868;74.608;2022-07-10T07:34:12;28.70;40.30
33528;DHT22;19861;42.868;74.608;2022-07-10T07:36:38;28.80;38.20
33528;DHT22;19861;42.868;74.608;2022-07-10T07:39:05;28.90;38.40
33528;DHT22;19861;42.868;74.608;2022-07-10T07:41:31;29.20;38.40
33528;DHT22;19861;42.868;74.608;2022-07-10T07:43:57;29.40;36.40
33528;DHT22;19861;42.868;74.608;2022-07-10T07:46:23;28.80;36.20
33528;DHT22;19861;42.868;74.608;2022-07-10T07:48:49;28.80;36.80
33528;DHT22;19861;42.868;74.608;2022-07-10T07:51:16;29.10;36.40
33528;DHT22;19861;42.868;74.608;2022-07-10T07:53:43;28.80;37.00
33528;DHT22;19861;42.868;74.608;2022-07-10T07:56:09;28.80;38.00
33528;DHT22;19861;42.868;74.608;2022-07-10T07:58:35;29.30;36.90
33528;DHT22;19861;42.868;74.608;2022-07-10T08:01:01;29.20;37.30
33528;DHT22;19861;42.868;74.608;2022-07-10T08:03:28;29.30;36.30
33528;DHT22;19861;42.868;74.608;2022-07-10T08:05:54;29.20;36.50
33528;DHT22;19861;42.868;74.608;2022-07-10T08:08:20;29.40;36.10
33528;DHT22;19861;42.868;74.608;2022-07-10T08:10:46;28.70;36.90
33528;DHT22;19861;42.868;74.608;2022-07-10T08:13:12;29.00;36.20
33528;DHT22;19861;42.868;74.608;2022-07-10T08:15:38;29.50;35.90
33528;DHT22;19861;42.868;74.608;2022-07-10T08:18:04;29.30;36.80
33528;DHT22;19861;42.868;74.608;2022-07-10T08:20:31;29.10;36.60
33528;DHT22;19861;42.868;74.608;2022-07-10T08:22:57;29.20;36.50
33528;DHT22;19861;42.868;74.608;2022-07-10T08:25:23;29.20;37.30
33528;DHT22;19861;42.868;74.608;2022-07-10T08:27:50;29.90;37.40
33528;DHT22;19861;42.868;74.608;2022-07-10T08:30:16;30.00;36.50
33528;DHT22;19861;42.868;74.608;2022-07-10T08:32:42;29.60;37.10
33528;DHT22;19861;42.868;74.608;2022-07-10T08:35:09;29.30;37.30
33528;DHT22;19861;42.868;74.608;2022-07-10T08:37:43;29.40;37.60
33528;DHT22;19861;42.868;74.608;2022-07-10T08:40:13;29.30;37.50
33528;DHT22;19861;42.868;74.608;2022-07-10T08:42:41;29.40;37.70
33528;DHT22;19861;42.868;74.608;2022-07-10T08:45:09;29.80;37.10
33528;DHT22;19861;42.868;74.608;2022-07-10T08:47:37;30.00;37.50
33528;DHT22;19861;42.868;74.608;2022-07-10T08:50:27;29.80;37.10
33528;DHT22;19861;42.868;74.608;2022-07-10T08:55:30;30.00;37.60
33528;DHT22;19861;42.868;74.608;2022-07-10T08:57:57;30.20;37.00
33528;DHT22;19861;42.868;74.608;2022-07-10T09:00:24;30.30;37.90
33528;DHT22;19861;42.868;74.608;2022-07-10T09:02:52;30.70;36.70
33528;DHT22;19861;42.868;74.608;2022-07-10T09:05:18;30.50;35.60
33528;DHT22;19861;42.868;74.608;2022-07-10T09:07:45;30.60;36.70
33528;DHT22;19861;42.868;74.608;2022-07-10T09:10:12;30.10;35.70
33528;DHT22;19861;42.868;74.608;2022-07-10T09:15:19;29.80;36.90
33528;DHT22;19861;42.868;74.608;2022-07-10T09:17:53;29.70;37.10
33528;DHT22;19861;42.868;74.608;2022-07-10T09:20:30;30.00;37.50
33528;DHT22;19861;42.868;74.608;2022-07-10T09:23:00;30.30;35.20
33528;DHT22;19861;42.868;74.608;2022-07-10T09:25:35;30.10;35.20
33528;DHT22;19861;42.868;74.608;2022-07-10T09:28:02;30.30;35.60
33528;DHT22;19861;42.868;74.608;2022-07-10T09:30:38;30.70;36.60
33528;DHT22;19861;42.868;74.608;2022-07-10T09:33:19;30.90;35.60
33528;DHT22;19861;42.868;74.608;2022-07-10T09:36:06;30.10;36.50
33528;DHT22;19861;42.868;74.608;2022-07-10T09:41:30;29.70;36.70
33528;DHT22;19861;42.868;74.608;2022-07-10T09:44:01;30.20;37.00
33528;DHT22;19861;42.868;74.608;2022-07-10T09:46:34;30.50;36.80
33528;DHT22;19861;42.868;74.608;2022-07-10T09:49:02;30.80;35.60
33528;DHT22;19861;42.868;74.608;2022-07-10T09:51:38;31.00;34.80
33528;DHT22;19861;42.868;74.608;2022-07-10T09:54:07;31.20;35.20
33528;DHT22;19861;42.868;74.608;2022-07-10T09:56:40;31.00;35.10
33528;DHT22;19861;42.868;74.608;2022-07-10T09:59:11;30.80;35.50
33528;DHT22;19861;42.868;74.608;2022-07-10T10:01:42;30.80;36.00
33528;DHT22;19861;42.868;74.608;2022-07-10T10:04:08;30.20;36.20
33528;DHT22;19861;42.868;74.608;2022-07-10T10:06:37;30.30;36.20
33528;DHT22;19861;42.868;74.608;2022-07-10T10:09:07;30.40;36.60
33528;DHT22;19861;42.868;74.608;2022-07-10T10:11:36;30.50;36.10
33528;DHT22;19861;42.868;74.608;2022-07-10T10:14:03;30.30;36.50
33528;DHT22;19861;42.868;74.608;2022-07-10T10:16:33;30.20;36.40
33528;DHT22;19861;42.868;74.608;2022-07-10T10:19:01;29.90;36.80
33528;DHT22;19861;42.868;74.608;2022-07-10T10:21:46;30.20;37.50
33528;DHT22;19861;42.868;74.608;2022-07-10T10:24:13;30.00;36.80
33528;DHT22;19861;42.868;74.608;2022-07-10T10:26:41;29.70;37.40
33528;DHT22;19861;42.868;74.608;2022-07-10T10:29:08;29.70;36.50
33528;DHT22;19861;42.868;74.608;2022-07-10T10:31:35;29.90;37.30
33528;DHT22;19861;42.868;74.608;2022-07-10T10:34:01;29.80;37.30
33528;DHT22;19861;42.868;74.608;2022-07-10T10:36:47;29.80;37.50
33528;DHT22;19861;42.868;74.608;2022-07-10T10:39:19;30.10;37.10
33528;DHT22;19861;42.868;74.608;2022-07-10T10:41:52;30.00;36.90
33528;DHT22;19861;42.868;74.608;2022-07-10T10:44:21;30.00;37.20
33528;DHT22;19861;42.868;74.608;2022-07-10T10:49:20;30.10;36.80
33528;DHT22;19861;42.868;74.608;2022-07-10T10:52:09;29.70;38.10
33528;DHT22;19861;42.868;74.608;2022-07-10T10:57:21;29.90;36.80
33528;DHT22;19861;42.868;74.608;2022-07-10T10:59:50;29.70;37.60
33528;DHT22;19861;42.868;74.608;2022-07-10T11:02:24;29.70;38.10
33528;DHT22;19861;42.868;74.608;2022-07-10T11:04:51;29.80;37.20
33528;DHT22;19861;42.868;74.608;2022-07-10T11:08:34;30.00;37.70
33528;DHT22;19861;42.868;74.608;2022-07-10T11:10:32;30.10;36.90
33528;DHT22;19861;42.868;74.608;2022-07-10T11:15:26;30.00;37.30
33528;DHT22;19861;42.868;74.608;2022-07-10T11:17:56;30.10;36.60
33528;DHT22;19861;42.868;74.608;2022-07-10T11:20:23;30.20;35.90
33528;DHT22;19861;42.868;74.608;2022-07-10T11:25:51;29.50;37.20
33528;DHT22;19861;42.868;74.608;2022-07-10T11:28:51;29.40;38.10
33528;DHT22;19861;42.868;74.608;2022-07-10T11:31:18;29.80;37.10
33528;DHT22;19861;42.868;74.608;2022-07-10T11:33:46;30.00;36.80
33528;DHT22;19861;42.868;74.608;2022-07-10T11:36:27;30.10;36.90
33528;DHT22;19861;42.868;74.608;2022-07-10T11:39:03;29.60;37.00
33528;DHT22;19861;42.868;74.608;2022-07-10T11:41:30;30.00;37.20
33528;DHT22;19861;42.868;74.608;2022-07-10T11:43:57;29.80;37.10
33528;DHT22;19861;42.868;74.608;2022-07-10T11:46:26;30.00;37.00
33528;DHT22;19861;42.868;74.608;2022-07-10T11:48:53;30.10;36.90
33528;DHT22;19861;42.868;74.608;2022-07-10T11:51:24;29.70;37.10
33528;DHT22;19861;42.868;74.608;2022-07-10T11:54:02;29.80;38.20
33528;DHT22;19861;42.868;74.608;2022-07-10T11:56:30;29.60;38.50
33528;DHT22;19861;42.868;74.608;2022-07-10T11:59:08;29.90;38.10
33528;DHT22;19861;42.868;74.608;2022-07-10T12:01:44;29.70;37.90
33528;DHT22;19861;42.868;74.608;2022-07-10T12:04:13;29.40;37.70
33528;DHT22;19861;42.868;74.608;2022-07-10T12:06:44;29.50;37.30
33528;DHT22;19861;42.868;74.608;2022-07-10T12:09:15;29.30;37.90
33528;DHT22;19861;42.868;74.608;2022-07-10T12:11:42;29.30;37.90
33528;DHT22;19861;42.868;74.608;2022-07-10T12:14:14;29.50;37.80
33528;DHT22;19861;42.868;74.608;2022-07-10T12:16:44;29.40;38.40
33528;DHT22;19861;42.868;74.608;2022-07-10T12:19:15;29.60;38.70
33528;DHT22;19861;42.868;74.608;2022-07-10T12:21:46;29.40;37.90
33528;DHT22;19861;42.868;74.608;2022-07-10T12:24:15;29.40;37.70
33528;DHT22;19861;42.868;74.608;2022-07-10T12:26:43;29.60;37.50
33528;DHT22;19861;42.868;74.608;2022-07-10T12:29:22;29.60;36.90
33528;DHT22;19861;42.868;74.608;2022-07-10T12:31:51;29.70;36.60
33528;DHT22;19861;42.868;74.608;2022-07-10T12:34:17;29.60;36.20
33528;DHT22;19861;42.868;74.608;2022-07-10T12:36:46;29.20;37.10
33528;DHT22;19861;42.868;74.608;2022-07-10T12:39:21;29.20;37.00
33528;DHT22;19861;42.868;74.608;2022-07-10T12:42:00;29.20;36.90
33528;DHT22;19861;42.868;74.608;2022-07-10T12:47:03;29.10;36.80
33528;DHT22;19861;42.868;74.608;2022-07-10T12:49:29;29.20;36.90
33528;DHT22;19861;42.868;74.608;2022-07-10T12:51:55;29.10;36.50
33528;DHT22;19861;42.868;74.608;2022-07-10T12:54:37;29.10;36.80
33528;DHT22;19861;42.868;74.608;2022-07-10T12:57:05;29.10;36.90
33528;DHT22;19861;42.868;74.608;2022-07-10T12:59:35;29.10;37.10
33528;DHT22;19861;42.868;74.608;2022-07-10T13:02:18;28.90;37.00
33528;DHT22;19861;42.868;74.608;2022-07-10T13:04:55;29.10;37.50
33528;DHT22;19861;42.868;74.608;2022-07-10T13:07:29;29.10;37.30
33528;DHT22;19861;42.868;74.608;2022-07-10T13:09:56;29.20;36.50
33528;DHT22;19861;42.868;74.608;2022-07-10T13:12:24;29.10;37.20
33528;DHT22;19861;42.868;74.608;2022-07-10T13:14:50;29.30;37.20
33528;DHT22;19861;42.868;74.608;2022-07-10T13:17:16;29.10;38.50
33528;DHT22;19861;42.868;74.608;2022-07-10T13:19:42;29.10;38.40
33528;DHT22;19861;42.868;74.608;2022-07-10T13:22:08;29.10;38.30
33528;DHT22;19861;42.868;74.608;2022-07-10T13:24:34;29.20;38.10
33528;DHT22;19861;42.868;74.608;2022-07-10T13:27:00;29.20;37.30
33528;DHT22;19861;42.868;74.608;2022-07-10T13:29:26;29.10;37.50
33528;DHT22;19861;42.868;74.608;2022-07-10T13:31:52;28.80;37.80
33528;DHT22;19861;42.868;74.608;2022-07-10T13:34:18;28.80;38.20
33528;DHT22;19861;42.868;74.608;2022-07-10T13:36:44;28.90;37.90
33528;DHT22;19861;42.868;74.608;2022-07-10T13:39:11;28.70;38.20
33528;DHT22;19861;42.868;74.608;2022-07-10T13:41:37;28.60;38.40
33528;DHT22;19861;42.868;74.608;2022-07-10T13:44:03;28.60;38.70
33528;DHT22;19861;42.868;74.608;2022-07-10T13:46:29;28.70;38.70
33528;DHT22;19861;42.868;74.608;2022-07-10T13:48:55;28.80;38.50
33528;DHT22;19861;42.868;74.608;2022-07-10T13:51:22;28.90;38.10
33528;DHT22;19861;42.868;74.608;2022-07-10T13:53:48;28.90;38.00
33528;DHT22;19861;42.868;74.608;2022-07-10T13:56:14;28.90;38.10
33528;DHT22;19861;42.868;74.608;2022-07-10T13:58:40;29.00;38.80
33528;DHT22;19861;42.868;74.608;2022-07-10T14:01:06;28.90;38.70
33528;DHT22;19861;42.868;74.608;2022-07-10T14:03:32;28.90;38.60
33528;DHT22;19861;42.868;74.608;2022-07-10T14:05:58;28.90;38.70
33528;DHT22;19861;42.868;74.608;2022-07-10T14:08:24;28.70;38.90
33528;DHT22;19861;42.868;74.608;2022-07-10T14:10:51;28.60;39.70
33528;DHT22;19861;42.868;74.608;2022-07-10T14:13:17;28.50;39.90
33528;DHT22;19861;42.868;74.608;2022-07-10T14:15:43;28.50;39.90
33528;DHT22;19861;42.868;74.608;2022-07-10T14:18:13;28.50;39.20
33528;DHT22;19861;42.868;74.608;2022-07-10T14:21:03;28.20;39.90
33528;DHT22;19861;42.868;74.608;2022-07-10T14:23:30;28.20;40.40
33528;DHT22;19861;42.868;74.608;2022-07-10T14:25:57;28.30;40.10
33528;DHT22;19861;42.868;74.608;2022-07-10T14:28:23;28.00;40.40
33528;DHT22;19861;42.868;74.608;2022-07-10T14:30:49;27.90;40.50
33528;DHT22;19861;42.868;74.608;2022-07-10T14:33:16;27.70;41.30
33528;DHT22;19861;42.868;74.608;2022-07-10T14:35:42;27.60;41.90
33528;DHT22;19861;42.868;74.608;2022-07-10T14:38:08;27.50;42.70
33528;DHT22;19861;42.868;74.608;2022-07-10T14:40:34;27.40;42.90
33528;DHT22;19861;42.868;74.608;2022-07-10T14:43:00;27.30;43.10
33528;DHT22;19861;42.868;74.608;2022-07-10T14:45:26;27.20;43.20
33528;DHT22;19861;42.868;74.608;2022-07-10T14:47:52;27.10;43.50
33528;DHT22;19861;42.868;74.608;2022-07-10T14:50:20;27.00;43.80
33528;DHT22;19861;42.868;74.608;2022-07-10T14:52:46;27.00;44.80
33528;DHT22;19861;42.868;74.608;2022-07-10T14:55:12;27.20;44.30
33528;DHT22;19861;42.868;74.608;2022-07-10T14:57:38;27.00;44.60
33528;DHT22;19861;42.868;74.608;2022-07-10T15:00:05;26.80;44.90
33528;DHT22;19861;42.868;74.608;2022-07-10T15:02:31;26.80;45.00
33528;DHT22;19861;42.868;74.608;2022-07-10T15:04:57;26.60;45.40
33528;DHT22;19861;42.868;74.608;2022-07-10T15:07:23;26.40;46.10
33528;DHT22;19861;42.868;74.608;2022-07-10T15:09:49;26.50;46.10
33528;DHT22;19861;42.868;74.608;2022-07-10T15:12:15;26.50;45.50
33528;DHT22;19861;42.868;74.608;2022-07-10T15:14:41;26.70;44.80
33528;DHT22;19861;42.868;74.608;2022-07-10T15:17:07;26.80;45.30
33528;DHT22;19861;42.868;74.608;2022-07-10T15:19:33;26.70;45.20
33528;DHT22;19861;42.868;74.608;2022-07-10T15:21:59;26.40;45.80
33528;DHT22;19861;42.868;74.608;2022-07-10T15:24:25;26.20;46.00
33528;DHT22;19861;42.868;74.608;2022-07-10T15:26:51;26.00;46.60
33528;DHT22;19861;42.868;74.608;2022-07-10T15:29:17;26.00;46.80
33528;DHT22;19861;42.868;74.608;2022-07-10T15:31:43;25.90;47.10
33528;DHT22;19861;42.868;74.608;2022-07-10T15:34:10;25.90;46.90
33528;DHT22;19861;42.868;74.608;2022-07-10T15:36:38;26.00;46.70
33528;DHT22;19861;42.868;74.608;2022-07-10T15:39:05;25.90;46.80
33528;DHT22;19861;42.868;74.608;2022-07-10T15:41:31;25.90;46.80